createdAt,value
2018-03-19T00:01:15.830Z,8.00
2018-03-19T00:03:45.806Z,7.10
2018-03-19T00:06:14.957Z,9.43
2018-03-19T00:08:44.132Z,8.23
2018-03-19T00:11:13.329Z,8.03
2018-03-19T00:13:42.516Z,7.33
2018-03-19T00:16:11.687Z,8.37
2018-03-19T00:18:40.889Z,6.73
2018-03-19T00:21:10.053Z,7.90
2018-03-19T00:23:39.227Z,6.57
2018-03-19T00:26:08.399Z,9.10
2018-03-19T00:28:37.574Z,9.17
2018-03-19T00:31:06.750Z,8.13
2018-03-19T00:33:35.918Z,7.13
2018-03-19T00:36:05.101Z,6.03
2018-03-19T00:38:34.284Z,8.47
2018-03-19T00:41:03.495Z,7.10
2018-03-19T00:43:32.678Z,8.03
2018-03-19T00:46:01.830Z,10.10
2018-03-19T00:48:31.019Z,9.37
2018-03-19T00:51:00.184Z,9.07
2018-03-19T00:53:29.372Z,6.60
2018-03-19T00:55:58.529Z,7.53
2018-03-19T00:58:27.704Z,12.67
2018-03-19T01:00:56.864Z,6.97
2018-03-19T01:03:26.037Z,7.60
2018-03-19T01:05:55.203Z,9.03
2018-03-19T01:08:25.037Z,7.07
2018-03-19T01:10:54.193Z,6.87
2018-03-19T01:13:23.360Z,6.67
2018-03-19T01:15:52.503Z,8.93
2018-03-19T01:18:22.096Z,10.80
2018-03-19T01:20:51.265Z,6.47
2018-03-19T01:23:20.446Z,8.23
2018-03-19T01:25:49.607Z,9.27
2018-03-19T01:28:19.197Z,7.67
2018-03-19T01:30:48.356Z,8.90
2018-03-19T01:33:17.524Z,8.20
2018-03-19T01:35:46.690Z,9.13
2018-03-19T01:38:15.888Z,7.37
2018-03-19T01:40:45.061Z,9.60
2018-03-19T01:43:14.247Z,9.67
2018-03-19T01:45:43.405Z,11.13
2018-03-19T01:48:12.575Z,8.40
2018-03-19T01:50:41.734Z,9.87
2018-03-19T01:53:10.946Z,10.37
2018-03-19T01:55:40.100Z,8.10
2018-03-19T01:58:09.267Z,7.10
2018-03-19T02:00:38.421Z,9.33
2018-03-19T02:03:07.617Z,9.93
2018-03-19T02:05:36.811Z,9.47
2018-03-19T02:08:05.956Z,7.30
2018-03-19T02:10:35.129Z,7.17
2018-03-19T02:13:04.280Z,7.57
2018-03-19T02:15:33.456Z,9.63
2018-03-19T02:18:02.624Z,6.37
2018-03-19T02:20:31.796Z,6.27
2018-03-19T02:23:00.948Z,8.50
2018-03-19T02:25:30.116Z,8.17
2018-03-19T02:27:59.299Z,12.77
2018-03-19T02:30:28.464Z,9.10
2018-03-19T02:32:57.624Z,13.40
2018-03-19T02:35:26.798Z,7.90
2018-03-19T02:37:55.965Z,8.80
2018-03-19T02:40:25.160Z,10.57
2018-03-19T02:42:54.312Z,9.30
2018-03-19T02:45:23.518Z,8.57
2018-03-19T02:47:52.676Z,7.47
2018-03-19T02:50:21.840Z,8.97
2018-03-19T02:52:51.008Z,9.03
2018-03-19T02:55:20.193Z,10.47
2018-03-19T02:57:49.352Z,8.03
2018-03-19T03:00:18.542Z,9.40
2018-03-19T03:02:47.697Z,6.77
2018-03-19T03:05:16.882Z,8.70
2018-03-19T03:07:46.053Z,9.07
2018-03-19T03:10:15.232Z,7.77
2018-03-19T03:12:44.412Z,10.30
2018-03-19T03:15:13.609Z,11.00
2018-03-19T03:17:42.770Z,7.10
2018-03-19T03:20:11.943Z,9.53
2018-03-19T03:22:41.099Z,8.97
2018-03-19T03:25:10.288Z,7.87
2018-03-19T03:27:39.439Z,8.20
2018-03-19T03:30:08.614Z,11.00
2018-03-19T03:32:37.765Z,8.60
2018-03-19T03:35:06.936Z,8.40
2018-03-19T03:37:36.116Z,8.57
2018-03-19T03:40:05.303Z,7.33
2018-03-19T03:42:34.451Z,9.90
2018-03-19T03:45:03.621Z,9.77
2018-03-19T03:47:32.772Z,7.83
2018-03-19T03:50:01.947Z,8.30
2018-03-19T03:52:31.092Z,6.63
2018-03-19T03:55:00.293Z,8.87
2018-03-19T03:57:29.453Z,8.77
2018-03-19T03:59:58.620Z,9.13
2018-03-19T04:02:27.772Z,7.70
2018-03-19T04:04:56.940Z,7.73
2018-03-19T04:07:26.133Z,9.60
2018-03-19T04:09:55.310Z,7.20
2018-03-19T04:12:24.464Z,10.67
2018-03-19T04:14:53.640Z,8.53
2018-03-19T04:17:22.820Z,13.27
2018-03-19T04:19:51.996Z,8.10
2018-03-19T04:22:21.155Z,8.23
2018-03-19T04:24:50.332Z,9.80
2018-03-19T04:27:19.499Z,9.97
2018-03-19T04:29:48.684Z,8.80
2018-03-19T04:32:17.896Z,8.60
2018-03-19T04:34:47.068Z,6.70
2018-03-19T04:37:16.224Z,11.30
2018-03-19T04:39:45.410Z,12.13
2018-03-19T04:42:14.566Z,7.57
2018-03-19T04:44:44.392Z,9.47
2018-03-19T04:47:13.564Z,8.33
2018-03-19T04:49:42.739Z,9.33
2018-03-19T04:52:11.915Z,10.80
2018-03-19T04:54:41.100Z,8.07
2018-03-19T04:57:10.264Z,9.23
2018-03-19T04:59:39.472Z,9.20
2018-03-19T05:02:08.633Z,9.07
2018-03-19T05:04:37.806Z,9.10
2018-03-19T05:07:06.967Z,13.77
2018-03-19T05:09:36.141Z,9.97
2018-03-19T05:12:05.292Z,9.30
2018-03-19T05:14:34.467Z,13.07
2018-03-19T05:17:03.625Z,11.07
2018-03-19T05:19:32.804Z,10.53
2018-03-19T05:22:01.960Z,9.63
2018-03-19T05:24:31.159Z,9.57
2018-03-19T05:27:00.327Z,10.20
2018-03-19T05:29:29.498Z,11.73
2018-03-19T05:31:58.656Z,9.47
2018-03-19T05:34:27.831Z,13.00
2018-03-19T05:36:56.992Z,11.63
2018-03-19T05:39:26.191Z,10.13
2018-03-19T05:41:55.365Z,9.43
2018-03-19T05:44:24.540Z,11.10
2018-03-19T05:46:53.688Z,11.27
2018-03-19T05:49:22.865Z,10.90
2018-03-19T05:51:52.028Z,10.27
2018-03-19T05:54:21.228Z,12.00
2018-03-19T05:56:50.385Z,12.17
2018-03-19T05:59:19.569Z,11.77
2018-03-19T06:01:48.738Z,11.10
2018-03-19T06:04:17.892Z,10.80
2018-03-19T06:06:47.098Z,9.83
2018-03-19T06:09:16.268Z,13.90
2018-03-19T06:11:45.435Z,8.70
2018-03-19T06:14:14.592Z,11.00
2018-03-19T06:16:43.771Z,13.40
2018-03-19T06:19:12.945Z,10.47
2018-03-19T06:21:42.123Z,10.50
2018-03-19T06:24:11.277Z,14.70
2018-03-19T06:26:40.452Z,14.00
2018-03-19T06:29:09.608Z,9.03
2018-03-19T06:31:38.831Z,11.87
2018-03-19T06:34:07.993Z,8.20
2018-03-19T06:36:37.172Z,10.20
2018-03-19T06:39:06.337Z,10.07
2018-03-19T06:41:35.516Z,11.93
2018-03-19T06:44:04.669Z,9.53
2018-03-19T06:46:33.868Z,11.27
2018-03-19T06:49:03.025Z,11.97
2018-03-19T06:51:32.225Z,11.03
2018-03-19T06:54:01.385Z,12.60
2018-03-19T06:56:30.561Z,11.23
2018-03-19T06:58:59.736Z,9.23
2018-03-19T07:01:28.908Z,14.40
2018-03-19T07:03:58.072Z,13.93
2018-03-19T07:06:27.263Z,10.37
2018-03-19T07:08:56.435Z,14.17
2018-03-19T07:11:25.632Z,11.70
2018-03-19T07:13:54.801Z,10.57
2018-03-19T07:16:23.979Z,19.50
2018-03-19T07:18:53.177Z,12.87
2018-03-19T07:21:22.361Z,10.20
2018-03-19T07:23:51.541Z,11.90
2018-03-19T07:26:20.712Z,9.57
2018-03-19T07:28:49.868Z,11.83
2018-03-19T07:31:19.040Z,11.27
2018-03-19T07:33:48.192Z,10.40
2018-03-19T07:36:17.379Z,10.97
2018-03-19T07:38:46.536Z,11.67
2018-03-19T07:41:15.709Z,9.43
2018-03-19T07:43:44.863Z,10.90
2018-03-19T07:46:14.040Z,11.90
2018-03-19T07:48:43.453Z,14.43
2018-03-19T07:51:12.627Z,16.57
2018-03-19T07:53:41.784Z,13.40
2018-03-19T07:56:10.964Z,12.67
2018-03-19T07:58:40.124Z,12.47
2018-03-19T08:01:09.287Z,9.90
2018-03-19T08:03:38.440Z,9.97
2018-03-19T08:06:07.616Z,10.73
2018-03-19T08:08:36.784Z,11.73
2018-03-19T08:11:05.961Z,9.60
2018-03-19T08:13:35.131Z,13.73
2018-03-19T08:16:04.309Z,11.60
2018-03-19T08:18:33.517Z,14.40
2018-03-19T08:21:02.683Z,13.60
2018-03-19T08:23:31.836Z,10.80
2018-03-19T08:26:01.016Z,10.93
2018-03-19T08:31:05.972Z,11.33
2018-03-19T08:33:35.130Z,8.73
2018-03-19T08:36:04.375Z,12.80
2018-03-19T08:38:33.500Z,10.93
2018-03-19T08:41:02.673Z,9.30
2018-03-19T08:43:31.825Z,9.53
2018-03-19T08:46:00.997Z,9.10
2018-03-19T08:48:30.152Z,11.50
2018-03-19T08:50:59.324Z,9.57
2018-03-19T08:53:28.476Z,12.53
2018-03-19T08:55:57.668Z,12.50
2018-03-19T08:58:26.823Z,11.20
2018-03-19T09:00:56.003Z,10.20
2018-03-19T09:03:25.168Z,10.43
2018-03-19T09:05:54.340Z,8.80
2018-03-19T09:08:23.500Z,8.00
2018-03-19T09:10:52.671Z,8.83
2018-03-19T09:13:21.825Z,10.40
2018-03-19T09:15:50.999Z,8.57
2018-03-19T09:18:20.173Z,10.93
2018-03-19T09:20:49.364Z,10.10
2018-03-19T09:23:18.524Z,10.63
2018-03-19T09:25:47.696Z,7.73
2018-03-19T09:28:16.856Z,10.40
2018-03-19T09:30:46.038Z,8.87
2018-03-19T09:33:15.210Z,7.40
2018-03-19T09:35:44.384Z,9.97
2018-03-19T09:38:13.544Z,10.07
2018-03-19T09:40:42.724Z,7.67
2018-03-19T09:43:11.888Z,9.00
2018-03-19T09:45:41.072Z,9.47
2018-03-19T09:48:10.231Z,10.23
2018-03-19T09:50:39.456Z,13.83
2018-03-19T09:53:08.597Z,11.00
2018-03-19T09:55:37.768Z,9.60
2018-03-19T09:58:06.932Z,8.93
2018-03-19T10:00:36.104Z,8.50
2018-03-19T10:03:05.259Z,8.57
2018-03-19T10:05:34.427Z,8.40
2018-03-19T10:08:03.580Z,8.10
2018-03-19T10:10:32.775Z,8.10
2018-03-19T10:13:01.949Z,9.23
2018-03-19T10:15:31.112Z,10.10
2018-03-19T10:18:00.288Z,5.87
2018-03-19T10:20:29.440Z,9.67
2018-03-19T10:22:58.621Z,7.30
2018-03-19T10:25:27.813Z,11.73
2018-03-19T10:27:56.983Z,10.00
2018-03-19T10:30:26.132Z,6.83
2018-03-19T10:32:55.308Z,7.37
2018-03-19T10:35:24.470Z,8.80
2018-03-19T10:37:53.657Z,7.83
2018-03-19T10:40:22.829Z,8.20
2018-03-19T10:42:52.000Z,8.13
2018-03-19T10:45:21.153Z,8.27
2018-03-19T10:47:50.328Z,8.93
2018-03-19T10:50:19.501Z,9.17
2018-03-19T10:52:48.710Z,9.73
2018-03-19T10:55:17.864Z,7.47
2018-03-19T10:57:47.048Z,7.73
2018-03-19T11:00:16.204Z,7.77
2018-03-19T11:02:51.224Z,6.20
2018-03-19T11:05:26.128Z,9.87
2018-03-19T11:08:01.152Z,6.70
2018-03-19T11:10:30.312Z,10.57
2018-03-19T11:12:59.483Z,9.93
2018-03-19T11:15:28.636Z,7.53
2018-03-19T11:17:57.804Z,9.17
2018-03-19T11:20:26.956Z,8.97
2018-03-19T11:22:56.182Z,10.30
2018-03-19T11:25:25.336Z,7.47
2018-03-19T11:27:54.503Z,6.80
2018-03-19T11:30:23.671Z,8.83
2018-03-19T11:32:52.839Z,6.13
2018-03-19T11:35:21.996Z,5.63
2018-03-19T11:37:51.201Z,6.30
2018-03-19T11:40:20.355Z,6.67
2018-03-19T11:42:49.532Z,7.90
2018-03-19T11:45:18.682Z,8.13
2018-03-19T11:47:47.861Z,8.67
2018-03-19T11:50:17.081Z,8.53
2018-03-19T11:52:46.260Z,7.53
2018-03-19T11:55:15.425Z,7.37
2018-03-19T11:57:44.599Z,13.67
2018-03-19T12:00:13.770Z,7.37
2018-03-19T12:02:42.952Z,9.23
2018-03-19T12:05:12.108Z,8.07
2018-03-19T12:07:41.278Z,9.47
2018-03-19T12:10:10.432Z,6.83
2018-03-19T12:12:39.634Z,6.40
2018-03-19T12:15:08.812Z,7.47
2018-03-19T12:17:37.988Z,6.70
2018-03-19T12:20:07.135Z,7.27
2018-03-19T12:22:36.308Z,6.83
2018-03-19T12:25:05.495Z,6.87
2018-03-19T12:27:34.688Z,7.33
2018-03-19T12:30:03.840Z,8.27
2018-03-19T12:32:33.017Z,9.63
2018-03-19T12:35:02.184Z,6.97
2018-03-19T12:37:31.476Z,7.20
2018-03-19T12:40:00.637Z,6.13
2018-03-19T12:42:29.809Z,7.07
2018-03-19T12:44:58.964Z,7.47
2018-03-19T12:47:28.136Z,6.87
2018-03-19T12:49:57.312Z,6.93
2018-03-19T12:52:26.497Z,7.70
2018-03-19T12:54:55.657Z,6.20
2018-03-19T12:57:24.838Z,6.27
2018-03-19T12:59:53.996Z,7.30
2018-03-19T13:02:23.180Z,5.47
2018-03-19T13:04:52.333Z,6.67
2018-03-19T13:07:21.532Z,8.33
2018-03-19T13:09:50.688Z,6.13
2018-03-19T13:12:19.861Z,6.87
2018-03-19T13:14:49.020Z,11.27
2018-03-19T13:17:18.191Z,7.87
2018-03-19T13:19:47.368Z,6.50
2018-03-19T13:22:16.550Z,6.13
2018-03-19T13:24:45.705Z,8.37
2018-03-19T13:27:14.881Z,5.43
2018-03-19T13:29:44.040Z,8.83
2018-03-19T13:32:13.217Z,6.10
2018-03-19T13:34:42.385Z,5.57
2018-03-19T13:37:11.593Z,4.77
2018-03-19T13:39:40.753Z,6.90
2018-03-19T13:42:09.927Z,8.60
2018-03-19T13:44:39.108Z,11.03
2018-03-19T13:47:08.280Z,6.77
2018-03-19T13:49:37.449Z,10.43
2018-03-19T13:52:06.620Z,6.97
2018-03-19T13:54:35.777Z,5.67
2018-03-19T13:57:04.956Z,10.63
2018-03-19T13:59:34.116Z,5.87
2018-03-19T14:02:03.289Z,5.53
2018-03-19T14:04:32.460Z,6.67
2018-03-19T14:07:01.629Z,5.57
2018-03-19T14:09:30.803Z,9.47
2018-03-19T14:11:59.976Z,5.90
2018-03-19T14:14:29.128Z,7.13
2018-03-19T14:16:58.388Z,5.77
2018-03-19T14:19:27.528Z,5.80
2018-03-19T14:21:56.685Z,5.53
2018-03-19T14:24:25.866Z,8.10
2018-03-19T14:26:55.025Z,7.43
2018-03-19T14:29:24.225Z,5.10
2018-03-19T14:31:53.398Z,4.93
2018-03-19T14:34:22.572Z,5.83
2018-03-19T14:36:51.725Z,9.07
2018-03-19T14:39:20.899Z,6.30
2018-03-19T14:41:50.092Z,6.53
2018-03-19T14:44:19.276Z,4.23
2018-03-19T14:46:48.436Z,4.63
2018-03-19T14:49:17.605Z,5.07
2018-03-19T14:54:22.913Z,4.43
2018-03-19T14:56:52.116Z,4.63
2018-03-19T14:59:21.293Z,5.73
2018-03-19T15:01:50.461Z,6.20
2018-03-19T15:04:19.679Z,4.07
2018-03-19T15:06:48.899Z,4.70
2018-03-19T15:09:18.080Z,5.27
2018-03-19T15:11:47.245Z,4.27
2018-03-19T15:14:16.504Z,30.87
2018-03-19T15:16:45.643Z,4.70
2018-03-19T15:19:14.813Z,4.50
2018-03-19T15:21:43.981Z,6.30
2018-03-19T15:24:13.160Z,4.77
2018-03-19T15:26:42.325Z,4.53
2018-03-19T15:29:11.508Z,4.17
2018-03-19T15:31:40.674Z,3.80
2018-03-19T15:34:09.852Z,4.80
2018-03-19T15:36:39.008Z,5.67
2018-03-19T15:39:08.205Z,4.73
2018-03-19T15:41:37.377Z,3.87
2018-03-19T15:44:06.552Z,4.27
2018-03-19T15:46:35.704Z,4.03
2018-03-19T15:49:04.893Z,5.27
2018-03-19T15:51:34.058Z,4.07
2018-03-19T15:54:03.238Z,4.20
2018-03-19T15:56:32.413Z,5.03
2018-03-19T15:59:01.596Z,3.40
2018-03-19T16:01:30.779Z,5.63
2018-03-19T16:03:59.957Z,5.37
2018-03-19T16:06:29.114Z,3.80
2018-03-19T16:08:58.406Z,5.93
2018-03-19T16:11:27.573Z,5.87
2018-03-19T16:13:56.753Z,5.17
2018-03-19T16:16:25.928Z,5.90
2018-03-19T16:18:55.116Z,4.67
2018-03-19T16:21:24.281Z,5.93
2018-03-19T16:23:53.461Z,4.80
2018-03-19T16:26:22.627Z,4.50
2018-03-19T16:28:51.799Z,5.33
2018-03-19T16:31:20.962Z,5.47
2018-03-19T16:33:50.138Z,6.77
2018-03-19T16:36:19.293Z,6.27
2018-03-19T16:38:48.480Z,6.83
2018-03-19T16:41:17.636Z,5.30
2018-03-19T16:43:46.832Z,6.03
2018-03-19T16:46:15.992Z,5.57
2018-03-19T16:48:45.180Z,6.07
2018-03-19T16:51:14.332Z,7.20
2018-03-19T16:53:43.513Z,5.07
2018-03-19T16:56:12.669Z,7.43
2018-03-19T16:58:41.846Z,6.30
2018-03-19T17:01:10.999Z,8.60
2018-03-19T17:03:40.173Z,7.83
2018-03-19T17:06:09.331Z,7.67
2018-03-19T17:08:38.507Z,7.77
2018-03-19T17:11:07.657Z,6.83
2018-03-19T17:13:36.832Z,4.97
2018-03-19T17:16:05.996Z,7.37
2018-03-19T17:18:35.164Z,7.27
2018-03-19T17:21:04.321Z,6.70
2018-03-19T17:23:33.505Z,13.70
2018-03-19T17:26:02.697Z,6.70
2018-03-19T17:28:31.880Z,7.23
2018-03-19T17:31:01.042Z,6.20
2018-03-19T17:33:30.212Z,7.27
2018-03-19T17:35:59.372Z,5.60
2018-03-19T17:38:28.552Z,7.00
2018-03-19T17:40:57.717Z,8.67
2018-03-19T17:43:26.897Z,8.37
2018-03-19T17:45:56.044Z,7.37
2018-03-19T17:48:25.220Z,5.67
2018-03-19T17:50:54.372Z,7.53
2018-03-19T17:53:23.565Z,6.37
2018-03-19T17:55:52.721Z,5.53
2018-03-19T17:58:21.894Z,6.93
2018-03-19T18:00:51.052Z,6.20
2018-03-19T18:03:20.444Z,9.10
2018-03-19T18:05:49.615Z,7.50
2018-03-19T18:08:18.788Z,8.80
2018-03-19T18:10:47.952Z,7.13
2018-03-19T18:13:17.127Z,9.47
2018-03-19T18:15:46.284Z,10.57
2018-03-19T18:18:15.465Z,8.30
2018-03-19T18:20:44.654Z,9.13
2018-03-19T18:23:13.821Z,11.17
2018-03-19T18:25:43.017Z,7.73
2018-03-19T18:28:13.009Z,9.87
2018-03-19T18:30:42.184Z,8.60
2018-03-19T18:33:11.345Z,8.27
2018-03-19T18:35:40.532Z,9.13
2018-03-19T18:38:09.693Z,10.23
2018-03-19T18:40:38.879Z,11.93
2018-03-19T18:43:08.037Z,9.83
2018-03-19T18:45:37.208Z,9.40
2018-03-19T18:48:06.368Z,9.70
2018-03-19T18:50:35.541Z,9.33
2018-03-19T18:53:04.704Z,8.40
2018-03-19T18:55:33.937Z,13.97
2018-03-19T18:58:03.104Z,10.37
2018-03-19T19:00:32.336Z,15.17
2018-03-19T19:03:01.505Z,18.00
2018-03-19T19:05:30.680Z,16.50
2018-03-19T19:07:59.906Z,16.30
2018-03-19T19:10:29.092Z,18.23
2018-03-19T19:12:58.252Z,20.70
2018-03-19T19:15:27.430Z,22.87
2018-03-19T19:17:56.594Z,23.47
2018-03-19T19:20:25.858Z,24.23
2018-03-19T19:22:55.077Z,23.17
2018-03-19T19:25:24.261Z,22.70
2018-03-19T19:27:53.416Z,28.30
2018-03-19T19:30:22.717Z,26.10
2018-03-19T19:32:51.876Z,27.37
2018-03-19T19:35:21.072Z,31.63
2018-03-19T19:37:50.248Z,34.87
2018-03-19T19:40:19.429Z,29.20
2018-03-19T19:42:48.592Z,29.00
2018-03-19T19:45:17.779Z,33.47
2018-03-19T19:47:46.949Z,30.53
2018-03-19T19:50:16.149Z,30.37
2018-03-19T19:52:45.314Z,26.80
2018-03-19T19:55:14.506Z,28.83
2018-03-19T19:57:43.677Z,22.03
2018-03-19T20:00:12.872Z,23.03
2018-03-19T20:02:42.028Z,23.70
2018-03-19T20:05:11.204Z,20.33
2018-03-19T20:07:40.361Z,17.17
2018-03-19T20:10:09.564Z,15.83
2018-03-19T20:12:38.740Z,17.33
2018-03-19T20:15:07.925Z,18.30
2018-03-19T20:17:37.080Z,19.40
2018-03-19T20:20:06.261Z,14.50
2018-03-19T20:22:35.437Z,14.57
2018-03-19T20:25:04.649Z,14.13
2018-03-19T20:27:33.812Z,11.87
2018-03-19T20:30:02.992Z,12.77
2018-03-19T20:32:32.165Z,15.87
2018-03-19T20:35:01.340Z,9.97
2018-03-19T20:37:30.510Z,11.50
2018-03-19T20:39:59.691Z,17.07
2018-03-19T20:42:28.852Z,13.33
2018-03-19T20:44:58.032Z,14.30
2018-03-19T20:47:27.198Z,11.73
2018-03-19T20:49:56.372Z,11.27
2018-03-19T20:52:25.538Z,42.80
2018-03-19T20:54:54.716Z,22.70
2018-03-19T20:57:23.884Z,18.13
2018-03-19T20:59:53.060Z,17.63
2018-03-19T21:02:22.222Z,28.17
2018-03-19T21:04:51.413Z,13.07
2018-03-19T21:07:20.588Z,11.30
2018-03-19T21:09:49.767Z,9.63
2018-03-19T21:12:18.924Z,9.13
2018-03-19T21:14:48.097Z,8.07
2018-03-19T21:17:17.253Z,14.03
2018-03-19T21:19:46.453Z,13.30
2018-03-19T21:22:15.621Z,14.17
2018-03-19T21:24:44.836Z,15.30
2018-03-19T21:27:13.997Z,13.27
2018-03-19T21:29:43.219Z,14.17
2018-03-19T21:32:12.382Z,12.77
2018-03-19T21:34:41.689Z,11.20
2018-03-19T21:37:11.400Z,9.53
2018-03-19T21:39:40.685Z,10.00
2018-03-19T21:42:09.849Z,9.03
2018-03-19T21:44:39.029Z,10.40
2018-03-19T21:47:08.191Z,8.60
2018-03-19T21:49:37.454Z,8.80
2018-03-19T21:52:06.574Z,8.77
2018-03-19T21:54:35.746Z,9.93
2018-03-19T21:57:04.900Z,13.97
2018-03-19T21:59:34.082Z,10.57
2018-03-19T22:02:03.245Z,9.33
2018-03-19T22:04:32.417Z,9.03
2018-03-19T22:07:01.583Z,11.87
2018-03-19T22:09:30.736Z,7.33
2018-03-19T22:11:59.908Z,9.23
2018-03-19T22:14:29.072Z,10.37
2018-03-19T22:16:58.243Z,11.50
2018-03-19T22:19:27.406Z,10.90
2018-03-19T22:21:56.609Z,10.73
2018-03-19T22:24:25.768Z,8.80
2018-03-19T22:26:54.955Z,8.83
2018-03-19T22:29:24.120Z,10.87
2018-03-19T22:31:53.318Z,8.57
2018-03-19T22:34:22.493Z,11.27
2018-03-19T22:36:51.741Z,9.87
2018-03-19T22:39:20.976Z,12.33
2018-03-19T22:41:50.131Z,11.03
2018-03-19T22:44:19.293Z,11.10
2018-03-19T22:46:48.475Z,10.30
2018-03-19T22:49:17.712Z,10.67
2018-03-19T22:51:46.904Z,10.27
2018-03-19T22:54:16.076Z,12.17
2018-03-19T22:56:45.258Z,10.47
2018-03-19T22:59:14.420Z,15.77
2018-03-19T23:01:43.620Z,10.87
2018-03-19T23:04:12.795Z,11.47
2018-03-19T23:06:41.987Z,16.53
2018-03-19T23:09:11.192Z,11.83
2018-03-19T23:11:40.383Z,11.03
2018-03-19T23:14:09.591Z,14.53
2018-03-19T23:16:38.773Z,12.07
2018-03-19T23:19:07.938Z,16.77
2018-03-19T23:21:37.150Z,12.70
2018-03-19T23:24:06.316Z,14.57
2018-03-19T23:26:35.496Z,12.33
2018-03-19T23:29:04.723Z,12.87
2018-03-19T23:31:33.921Z,13.67
2018-03-19T23:34:03.097Z,13.83
2018-03-19T23:36:32.269Z,15.07
2018-03-19T23:39:01.426Z,13.37
2018-03-19T23:41:30.614Z,12.50
2018-03-19T23:43:59.771Z,10.03
2018-03-19T23:46:28.944Z,11.80
2018-03-19T23:48:58.101Z,10.70
2018-03-19T23:51:27.281Z,13.93
2018-03-19T23:53:56.436Z,14.73
2018-03-19T23:56:25.616Z,14.80
2018-03-19T23:58:54.807Z,12.20
